createdAt,value
2022-11-10T00:00:48.387Z,14.24
2022-11-10T00:03:35.510Z,14.40
2022-11-10T00:06:21.853Z,13.96
2022-11-10T00:09:07.868Z,13.52
2022-11-10T00:11:54.423Z,13.13
2022-11-10T00:14:58.986Z,13.01
2022-11-10T00:17:45.683Z,13.39
2022-11-10T00:20:32.238Z,13.55
2022-11-10T00:23:18.833Z,13.53
2022-11-10T00:26:11.788Z,13.49
2022-11-10T00:28:57.685Z,12.76
2022-11-10T00:31:43.642Z,12.99
2022-11-10T00:34:29.763Z,12.90
2022-11-10T00:37:15.474Z,12.71
2022-11-10T00:40:01.808Z,12.70
2022-11-10T00:42:48.039Z,13.05
2022-11-10T00:45:34.092Z,12.89
2022-11-10T00:48:20.080Z,13.24
2022-11-10T00:51:07.396Z,13.22
2022-11-10T00:53:53.410Z,12.69
2022-11-10T00:56:39.296Z,12.57
2022-11-10T00:59:24.890Z,12.55
2022-11-10T01:02:11.174Z,12.44
2022-11-10T01:04:57.562Z,12.13
2022-11-10T01:07:43.598Z,12.64
2022-11-10T01:10:29.832Z,12.50
2022-11-10T01:13:15.904Z,12.16
2022-11-10T01:16:12.616Z,11.69
2022-11-10T01:19:00.766Z,11.72
2022-11-10T01:21:47.049Z,12.09
2022-11-10T01:24:33.333Z,11.85
2022-11-10T01:27:19.225Z,11.88
2022-11-10T01:30:05.468Z,12.18
2022-11-10T01:32:51.204Z,12.25
2022-11-10T01:35:38.242Z,12.49
2022-11-10T01:38:27.572Z,12.74
2022-11-10T01:41:14.249Z,12.62
2022-11-10T01:44:22.266Z,12.50
2022-11-10T01:47:08.237Z,12.33
2022-11-10T01:49:54.539Z,13.02
2022-11-10T01:52:42.315Z,12.51
2022-11-10T01:55:29.266Z,12.93
2022-11-10T01:58:17.090Z,13.24
2022-11-10T02:01:03.181Z,13.48
2022-11-10T02:04:08.591Z,13.54
2022-11-10T02:06:54.952Z,14.01
2022-11-10T02:09:40.980Z,14.32
2022-11-10T02:12:39.640Z,14.19
2022-11-10T02:15:26.454Z,14.11
2022-11-10T02:18:12.368Z,13.48
2022-11-10T02:20:58.029Z,13.85
2022-11-10T02:23:45.564Z,13.82
2022-11-10T02:26:32.003Z,13.52
2022-11-10T02:29:17.645Z,13.63
2022-11-10T02:32:04.000Z,13.49
2022-11-10T02:34:49.971Z,13.25
2022-11-10T02:37:35.827Z,12.86
2022-11-10T02:40:21.767Z,13.39
2022-11-10T02:43:11.101Z,13.49
2022-11-10T02:45:56.869Z,13.17
2022-11-10T02:48:43.065Z,13.46
2022-11-10T02:51:29.491Z,13.78
2022-11-10T02:54:15.300Z,12.61
2022-11-10T02:57:02.840Z,12.07
2022-11-10T02:59:50.640Z,12.91
2022-11-10T03:02:36.799Z,13.49
2022-11-10T03:05:23.383Z,13.91
2022-11-10T03:08:09.420Z,14.01
2022-11-10T03:10:56.121Z,14.07
2022-11-10T03:14:00.239Z,14.13
2022-11-10T03:16:47.615Z,13.02
2022-11-10T03:19:34.040Z,12.17
2022-11-10T03:22:19.937Z,11.99
2022-11-10T03:25:07.180Z,11.77
2022-11-10T03:27:53.378Z,11.70
2022-11-10T03:30:39.821Z,11.55
2022-11-10T03:33:26.114Z,11.32
2022-11-10T03:36:12.074Z,11.37
2022-11-10T03:38:58.046Z,12.72
2022-11-10T03:41:44.009Z,11.29
2022-11-10T03:44:30.061Z,11.04
2022-11-10T03:47:16.175Z,10.48
2022-11-10T03:50:02.745Z,10.38
2022-11-10T03:52:48.824Z,10.47
2022-11-10T03:55:34.751Z,10.84
2022-11-10T03:58:20.921Z,10.68
2022-11-10T04:01:06.749Z,11.57
2022-11-10T04:03:52.435Z,12.32
2022-11-10T04:06:57.346Z,12.67
2022-11-10T04:09:43.386Z,10.72
2022-11-10T04:12:47.956Z,10.76
2022-11-10T04:15:42.398Z,11.03
2022-11-10T04:18:29.783Z,11.34
2022-11-10T04:21:16.122Z,11.24
2022-11-10T04:24:02.004Z,10.98
2022-11-10T04:26:49.005Z,12.17
2022-11-10T04:29:35.313Z,11.63
2022-11-10T04:32:21.488Z,11.83
2022-11-10T04:35:07.769Z,10.67
2022-11-10T04:37:54.528Z,11.66
2022-11-10T04:40:40.472Z,11.60
2022-11-10T04:43:27.196Z,10.70
2022-11-10T04:46:23.453Z,10.85
2022-11-10T04:49:10.422Z,10.47
2022-11-10T04:51:56.330Z,10.59
2022-11-10T04:54:42.993Z,11.09
2022-11-10T04:57:29.003Z,11.24
2022-11-10T05:00:15.549Z,10.71
2022-11-10T05:03:03.383Z,10.59
2022-11-10T05:05:49.460Z,10.73
2022-11-10T05:08:35.776Z,10.58
2022-11-10T05:11:22.009Z,10.48
2022-11-10T05:14:08.162Z,10.96
2022-11-10T05:16:53.772Z,11.50
2022-11-10T05:19:40.225Z,11.19
2022-11-10T05:22:26.373Z,11.57
2022-11-10T05:25:12.449Z,11.82
2022-11-10T05:27:58.522Z,10.85
2022-11-10T05:30:45.000Z,11.32
2022-11-10T05:33:31.049Z,11.65
2022-11-10T05:36:17.471Z,10.69
2022-11-10T05:39:03.499Z,11.73
2022-11-10T05:41:49.587Z,11.13
2022-11-10T05:44:35.622Z,12.00
2022-11-10T05:47:21.134Z,11.77
2022-11-10T05:50:08.967Z,11.16
2022-11-10T05:52:55.861Z,10.54
2022-11-10T05:55:41.511Z,11.77
2022-11-10T05:58:27.649Z,12.11
2022-11-10T06:01:13.490Z,12.30
2022-11-10T06:03:59.740Z,12.04
2022-11-10T06:06:46.742Z,12.10
2022-11-10T06:09:33.144Z,12.63
2022-11-10T06:12:19.241Z,12.84
2022-11-10T06:15:05.856Z,11.89
2022-11-10T06:17:52.015Z,11.23
2022-11-10T06:20:38.172Z,11.50
2022-11-10T06:23:24.803Z,12.53
2022-11-10T06:26:11.081Z,12.92
2022-11-10T06:28:58.242Z,13.10
2022-11-10T06:31:43.928Z,13.01
2022-11-10T06:34:30.383Z,11.94
2022-11-10T06:37:16.373Z,12.68
2022-11-10T06:40:02.582Z,11.77
2022-11-10T06:42:49.125Z,11.94
2022-11-10T06:45:35.545Z,12.78
2022-11-10T06:48:21.665Z,11.69
2022-11-10T06:51:07.500Z,12.23
2022-11-10T06:53:53.713Z,12.51
2022-11-10T06:56:39.712Z,12.63
2022-11-10T06:59:25.580Z,12.82
2022-11-10T07:02:14.532Z,12.93
2022-11-10T07:05:00.563Z,12.53
2022-11-10T07:07:46.346Z,12.32
2022-11-10T07:10:33.236Z,12.08
2022-11-10T07:13:19.695Z,12.18
2022-11-10T07:16:07.895Z,12.23
2022-11-10T07:18:53.947Z,12.29
2022-11-10T07:21:42.201Z,12.14
2022-11-10T07:24:30.442Z,11.59
2022-11-10T07:27:16.906Z,12.07
2022-11-10T07:30:04.204Z,11.23
2022-11-10T07:33:06.330Z,12.21
2022-11-10T07:35:54.236Z,12.44
2022-11-10T07:38:40.338Z,12.17
2022-11-10T07:41:26.504Z,11.97
2022-11-10T07:44:12.581Z,12.11
2022-11-10T07:46:58.458Z,12.42
2022-11-10T07:49:44.188Z,12.28
2022-11-10T07:52:30.033Z,11.90
2022-11-10T07:55:16.530Z,12.34
2022-11-10T07:58:02.655Z,12.64
2022-11-10T08:00:48.757Z,12.26
2022-11-10T08:03:34.723Z,12.26
2022-11-10T08:06:21.191Z,12.35
2022-11-10T08:09:07.355Z,12.41
2022-11-10T08:11:53.570Z,11.80
2022-11-10T08:14:39.644Z,12.72
2022-11-10T08:17:25.387Z,12.70
2022-11-10T08:20:11.485Z,12.87
2022-11-10T08:23:01.896Z,11.75
2022-11-10T08:25:48.060Z,12.11
2022-11-10T08:28:33.911Z,12.39
2022-11-10T08:31:19.760Z,12.25
2022-11-10T08:34:05.827Z,12.85
2022-11-10T08:36:54.649Z,12.67
2022-11-10T08:39:41.015Z,12.68
2022-11-10T08:42:26.749Z,12.69
2022-11-10T08:45:14.018Z,12.60
2022-11-10T08:48:02.257Z,12.42
2022-11-10T08:50:49.654Z,12.13
2022-11-10T08:53:35.455Z,12.52
2022-11-10T08:56:22.011Z,13.04
2022-11-10T08:59:07.703Z,12.85
2022-11-10T09:01:53.846Z,12.50
2022-11-10T09:04:39.735Z,12.35
2022-11-10T09:07:25.686Z,11.92
2022-11-10T09:10:13.017Z,12.53
2022-11-10T09:13:03.388Z,11.87
2022-11-10T09:15:49.393Z,12.61
2022-11-10T09:18:35.962Z,12.49
2022-11-10T09:21:21.936Z,12.28
2022-11-10T09:24:07.942Z,12.29
2022-11-10T09:26:53.671Z,12.27
2022-11-10T09:29:39.478Z,12.45
2022-11-10T09:32:25.110Z,12.22
2022-11-10T09:35:11.071Z,11.91
2022-11-10T09:37:56.891Z,11.79
2022-11-10T09:40:56.049Z,11.78
2022-11-10T09:44:02.205Z,11.66
2022-11-10T09:47:08.313Z,11.68
2022-11-10T09:49:56.635Z,11.98
2022-11-10T09:52:43.221Z,12.12
2022-11-10T09:55:44.950Z,11.94
2022-11-10T09:58:50.437Z,11.86
2022-11-10T10:01:50.098Z,11.89
2022-11-10T10:04:36.161Z,11.84
2022-11-10T10:07:28.919Z,12.23
2022-11-10T10:10:23.997Z,12.18
2022-11-10T10:13:37.673Z,12.24
2022-11-10T10:16:54.515Z,12.33
2022-11-10T10:19:50.007Z,12.72
2022-11-10T10:22:56.178Z,12.85
2022-11-10T10:25:43.808Z,12.73
2022-11-10T10:28:38.783Z,12.79
2022-11-10T10:31:27.164Z,13.03
2022-11-10T10:34:16.395Z,12.89
2022-11-10T10:37:02.596Z,12.48
2022-11-10T10:39:50.623Z,12.65
2022-11-10T10:42:37.787Z,12.70
2022-11-10T10:45:29.257Z,13.08
2022-11-10T10:48:29.473Z,12.94
2022-11-10T10:51:29.035Z,12.64
2022-11-10T10:54:25.484Z,12.86
2022-11-10T10:57:20.398Z,13.03
2022-11-10T11:00:18.427Z,13.49
2022-11-10T11:03:22.910Z,13.46
2022-11-10T11:06:15.553Z,13.45
2022-11-10T11:09:14.374Z,13.35
2022-11-10T11:12:10.329Z,13.24
2022-11-10T11:15:11.005Z,12.81
2022-11-10T11:17:59.246Z,13.34
2022-11-10T11:21:13.221Z,13.42
2022-11-10T11:24:07.861Z,13.24
2022-11-10T11:27:02.957Z,13.52
2022-11-10T11:30:03.632Z,13.55
2022-11-10T11:33:08.044Z,13.33
2022-11-10T11:36:01.683Z,13.37
2022-11-10T11:39:00.724Z,13.38
2022-11-10T11:42:09.080Z,13.41
2022-11-10T11:45:10.743Z,13.14
2022-11-10T11:48:05.639Z,13.26
2022-11-10T11:50:56.054Z,13.41
2022-11-10T11:54:03.917Z,13.18
2022-11-10T11:56:50.800Z,13.36
2022-11-10T12:00:08.396Z,13.07
2022-11-10T12:03:19.288Z,13.15
2022-11-10T12:06:04.937Z,12.92
2022-11-10T12:09:28.560Z,13.15
2022-11-10T12:12:51.896Z,13.18
2022-11-10T12:16:15.949Z,13.34
2022-11-10T12:19:31.123Z,13.35
2022-11-10T12:22:38.879Z,13.08
2022-11-10T12:25:48.825Z,12.92
2022-11-10T12:28:38.189Z,12.75
2022-11-10T12:31:26.390Z,13.06
2022-11-10T12:34:29.474Z,12.91
2022-11-10T12:37:26.526Z,12.63
2022-11-10T12:40:21.075Z,12.71
2022-11-10T12:43:18.078Z,12.71
2022-11-10T12:46:12.375Z,12.87
2022-11-10T12:49:11.589Z,12.84
2022-11-10T12:52:03.959Z,12.39
2022-11-10T12:54:50.331Z,12.77
2022-11-10T12:57:37.451Z,12.59
2022-11-10T13:00:28.661Z,12.89
2022-11-10T13:03:25.308Z,12.82
2022-11-10T13:06:26.237Z,12.84
2022-11-10T13:09:29.037Z,12.76
2022-11-10T13:12:17.685Z,12.70
2022-11-10T13:15:40.764Z,12.59
2022-11-10T13:18:32.707Z,12.74
2022-11-10T13:21:18.864Z,12.67
2022-11-10T13:24:05.083Z,12.62
2022-11-10T13:26:55.410Z,12.71
2022-11-10T13:29:47.547Z,12.49
2022-11-10T13:32:34.684Z,12.54
2022-11-10T13:35:29.741Z,12.58
2022-11-10T13:38:32.888Z,12.68
2022-11-10T13:41:25.724Z,12.71
2022-11-10T13:44:29.437Z,12.62
2022-11-10T13:47:40.077Z,12.27
2022-11-10T13:51:06.435Z,12.24
2022-11-10T13:54:15.573Z,12.43
2022-11-10T13:57:22.027Z,12.47
2022-11-10T14:00:14.855Z,12.38
2022-11-10T14:03:08.228Z,12.58
2022-11-10T14:05:57.454Z,12.62
2022-11-10T14:08:53.060Z,12.72
2022-11-10T14:11:42.103Z,12.52
2022-11-10T14:14:54.273Z,12.62
2022-11-10T14:17:49.124Z,12.20
2022-11-10T14:20:43.640Z,12.51
2022-11-10T14:23:31.973Z,12.51
2022-11-10T14:26:51.148Z,12.35
2022-11-10T14:29:39.304Z,12.33
2022-11-10T14:32:27.063Z,12.41
2022-11-10T14:35:22.188Z,12.13
2022-11-10T14:38:20.848Z,12.21
2022-11-10T14:41:07.097Z,12.27
2022-11-10T14:44:07.472Z,12.30
2022-11-10T14:46:54.634Z,12.46
2022-11-10T14:49:40.647Z,12.37
2022-11-10T14:52:27.531Z,12.53
2022-11-10T14:55:17.669Z,12.61
2022-11-10T14:58:15.049Z,12.47
2022-11-10T15:01:05.905Z,12.48
2022-11-10T15:03:52.221Z,12.60
2022-11-10T15:06:43.108Z,12.65
2022-11-10T15:09:32.803Z,12.69
2022-11-10T15:12:22.964Z,12.44
2022-11-10T15:15:19.710Z,12.67
2022-11-10T15:18:06.520Z,13.11
2022-11-10T15:21:06.275Z,13.21
2022-11-10T15:23:54.177Z,12.13
2022-11-10T15:26:40.900Z,12.73
2022-11-10T15:29:28.720Z,13.16
2022-11-10T15:32:17.038Z,12.97
2022-11-10T15:35:10.610Z,12.74
2022-11-10T15:38:18.095Z,12.94
2022-11-10T15:41:12.494Z,12.94
2022-11-10T15:44:14.450Z,12.93
2022-11-10T15:47:01.390Z,13.04
2022-11-10T15:49:48.017Z,13.05
2022-11-10T15:52:34.229Z,13.03
2022-11-10T15:55:23.865Z,13.05
2022-11-10T15:58:16.588Z,13.21
2022-11-10T16:01:03.197Z,13.03
2022-11-10T16:03:49.800Z,12.90
2022-11-10T16:06:35.842Z,13.01
2022-11-10T16:09:22.934Z,13.30
2022-11-10T16:12:20.031Z,12.64
2022-11-10T16:15:07.160Z,12.24
2022-11-10T16:17:53.463Z,12.37
2022-11-10T16:20:39.828Z,12.84
2022-11-10T16:23:28.494Z,12.65
2022-11-10T16:26:17.798Z,12.51
2022-11-10T16:29:03.628Z,12.42
2022-11-10T16:31:50.726Z,12.47
2022-11-10T16:34:36.936Z,12.16
2022-11-10T16:37:23.164Z,12.24
2022-11-10T16:40:17.925Z,12.12
2022-11-10T16:43:03.953Z,12.08
2022-11-10T16:45:51.945Z,11.89
2022-11-10T16:48:37.904Z,12.48
2022-11-10T16:51:34.803Z,12.29
2022-11-10T16:57:55.741Z,12.65
2022-11-10T17:00:43.656Z,12.85
2022-11-10T17:03:36.679Z,12.83
2022-11-10T17:06:25.292Z,12.96
2022-11-10T17:09:18.424Z,13.14
2022-11-10T17:12:05.323Z,13.27
2022-11-10T17:14:52.114Z,13.18
2022-11-10T17:17:40.283Z,13.12
2022-11-10T17:20:35.219Z,12.79
2022-11-10T17:23:24.250Z,12.86
2022-11-10T17:26:13.824Z,12.43
2022-11-10T17:29:00.562Z,12.68
2022-11-10T17:31:47.493Z,12.59
2022-11-10T17:34:35.527Z,12.33
2022-11-10T17:37:24.374Z,12.05
2022-11-10T17:40:21.531Z,12.12
2022-11-10T17:43:12.716Z,12.07
2022-11-10T17:45:59.051Z,12.02
2022-11-10T17:48:47.319Z,11.96
2022-11-10T17:51:35.334Z,11.93
2022-11-10T17:54:21.748Z,11.81
2022-11-10T17:57:10.419Z,11.78
2022-11-10T17:59:57.026Z,11.66
2022-11-10T18:02:45.448Z,11.79
2022-11-10T18:05:31.887Z,11.72
2022-11-10T18:08:18.289Z,11.62
2022-11-10T18:11:05.154Z,11.36
2022-11-10T18:13:51.877Z,11.39
2022-11-10T18:16:38.845Z,11.27
2022-11-10T18:19:25.933Z,11.35
2022-11-10T18:22:12.643Z,11.38
2022-11-10T18:24:58.940Z,11.33
2022-11-10T18:27:45.057Z,11.23
2022-11-10T18:30:35.290Z,11.17
2022-11-10T18:33:22.856Z,11.22
2022-11-10T18:36:09.343Z,11.15
2022-11-10T18:38:55.905Z,11.31
2022-11-10T18:41:51.061Z,11.37
2022-11-10T18:44:37.850Z,11.48
2022-11-10T18:47:24.009Z,11.50
2022-11-10T18:50:10.334Z,11.27
2022-11-10T18:52:57.598Z,11.38
2022-11-10T18:55:53.778Z,11.37
2022-11-10T18:58:40.210Z,11.30
2022-11-10T19:01:26.754Z,11.11
2022-11-10T19:04:14.676Z,11.09
2022-11-10T19:07:01.050Z,10.89
2022-11-10T19:09:47.959Z,10.87
2022-11-10T19:12:34.644Z,11.04
2022-11-10T19:15:21.201Z,11.19
2022-11-10T19:18:08.861Z,10.99
2022-11-10T19:20:54.776Z,11.36
2022-11-10T19:23:41.462Z,10.38
2022-11-10T19:26:28.348Z,11.01
2022-11-10T19:29:16.870Z,11.38
2022-11-10T19:32:03.091Z,11.70
2022-11-10T19:34:49.824Z,11.58
2022-11-10T19:37:36.093Z,11.54
2022-11-10T19:40:23.052Z,11.45
2022-11-10T19:43:09.066Z,11.12
2022-11-10T19:45:55.203Z,11.06
2022-11-10T19:48:43.000Z,11.29
2022-11-10T19:51:29.380Z,11.37
2022-11-10T19:54:19.869Z,11.27
2022-11-10T19:57:07.251Z,10.93
2022-11-10T19:59:54.373Z,11.01
2022-11-10T20:02:45.681Z,11.08
2022-11-10T20:05:31.814Z,11.10
2022-11-10T20:08:17.767Z,10.18
2022-11-10T20:11:12.511Z,9.76
2022-11-10T20:14:00.932Z,9.87
2022-11-10T20:16:47.155Z,10.00
2022-11-10T20:19:40.769Z,10.93
2022-11-10T20:22:27.827Z,10.95
2022-11-10T20:25:14.319Z,10.24
2022-11-10T20:28:06.093Z,9.86
2022-11-10T20:30:55.821Z,10.02
2022-11-10T20:33:42.515Z,9.74
2022-11-10T20:36:31.255Z,10.04
2022-11-10T20:39:18.156Z,10.31
2022-11-10T20:42:05.125Z,10.39
2022-11-10T20:44:51.278Z,9.87
2022-11-10T20:47:37.500Z,10.42
2022-11-10T20:50:24.782Z,11.04
2022-11-10T20:53:12.953Z,11.53
2022-11-10T20:56:00.882Z,11.34
2022-11-10T20:58:46.919Z,10.96
2022-11-10T21:01:33.681Z,9.75
2022-11-10T21:04:19.518Z,9.91
2022-11-10T21:07:05.436Z,9.63
2022-11-10T21:09:51.575Z,9.41
2022-11-10T21:12:49.388Z,9.16
2022-11-10T21:15:38.177Z,9.13
2022-11-10T21:18:26.216Z,9.19
2022-11-10T21:21:22.940Z,9.56
2022-11-10T21:24:10.133Z,8.82
2022-11-10T21:26:57.007Z,8.81
2022-11-10T21:29:43.017Z,9.18
2022-11-10T21:32:29.162Z,8.68
2022-11-10T21:35:15.347Z,9.40
2022-11-10T21:38:01.482Z,9.08
2022-11-10T21:40:47.411Z,8.73
2022-11-10T21:43:33.490Z,8.75
2022-11-10T21:46:19.344Z,10.00
2022-11-10T21:49:07.833Z,8.98
2022-11-10T21:51:53.669Z,9.54
2022-11-10T21:54:39.337Z,8.98
2022-11-10T21:57:25.300Z,9.25
2022-11-10T22:00:12.535Z,9.12
2022-11-10T22:02:59.959Z,9.80
2022-11-10T22:05:46.073Z,9.57
2022-11-10T22:08:32.384Z,9.74
2022-11-10T22:11:38.748Z,9.69
2022-11-10T22:14:43.076Z,9.36
2022-11-10T22:17:49.966Z,9.16
2022-11-10T22:20:38.765Z,9.32
2022-11-10T22:23:44.441Z,9.45
2022-11-10T22:26:30.323Z,9.15
2022-11-10T22:29:16.376Z,9.21
2022-11-10T22:32:02.703Z,9.43
2022-11-10T22:34:48.573Z,9.44
2022-11-10T22:37:34.260Z,9.57
2022-11-10T22:40:38.584Z,9.81
2022-11-10T22:43:42.904Z,9.16
2022-11-10T22:46:29.291Z,8.51
2022-11-10T22:49:16.385Z,8.42
2022-11-10T22:52:02.192Z,8.13
2022-11-10T22:54:48.395Z,7.79
2022-11-10T22:57:34.009Z,8.03
2022-11-10T23:00:20.099Z,7.80
2022-11-10T23:03:06.151Z,7.83
2022-11-10T23:05:56.047Z,8.05
2022-11-10T23:08:43.424Z,8.23
2022-11-10T23:11:30.858Z,7.99
2022-11-10T23:14:16.627Z,8.04
2022-11-10T23:17:02.309Z,7.94
2022-11-10T23:19:48.096Z,7.91
2022-11-10T23:22:33.856Z,7.89
2022-11-10T23:25:19.560Z,8.32
2022-11-10T23:28:05.479Z,7.87
2022-11-10T23:30:51.180Z,7.91
2022-11-10T23:33:38.142Z,8.38
2022-11-10T23:36:25.669Z,7.97
2022-11-10T23:39:13.279Z,8.58
2022-11-10T23:41:59.313Z,8.70
2022-11-10T23:44:45.122Z,8.70
2022-11-10T23:47:30.992Z,9.07
2022-11-10T23:50:16.954Z,9.69
2022-11-10T23:53:02.782Z,9.39
2022-11-10T23:55:59.334Z,9.54
2022-11-10T23:58:45.310Z,9.36
